Time;durP1;ratioP1;P1;durP2;ratioP2;P2;SDS_P1;SDS_P2;PMS_P1;PMS_P2;Temp;Humidity;BMP_temperature;BMP_pressure;BME280_temperature;BME280_humidity;BME280_pressure;Samples;Min_cycle;Max_cycle;Signal;HPM_P1;HPM_P2
2023/09/07 00:00:16;;;;;;;25.03;9.07;;;;;;;16.43;83.15;101158.53;4227456;28;20314;-69
2023/09/07 00:02:42;;;;;;;19.40;8.53;;;;;;;16.48;82.94;101151.56;4236360;28;21190;-71
2023/09/07 00:05:09;;;;;;;23.47;8.50;;;;;;;16.31;83.66;101160.75;4237344;28;20355;-69
2023/09/07 00:07:36;;;;;;;16.33;8.43;;;;;;;16.37;83.58;101157.31;4218298;28;20246;-71
2023/09/07 00:10:04;;;;;;;20.60;7.90;;;;;;;16.31;83.72;101163.47;4239744;28;20259;-70
2023/09/07 00:12:31;;;;;;;17.77;8.13;;;;;;;16.29;83.82;101155.44;4241031;28;20766;-70
2023/09/07 00:14:58;;;;;;;23.37;9.13;;;;;;;16.33;83.64;101161.44;4243018;28;20852;-69
2023/09/07 00:17:25;;;;;;;23.47;10.00;;;;;;;16.31;83.63;101158.84;4228710;28;20238;-68
2023/09/07 00:19:52;;;;;;;17.87;8.50;;;;;;;16.28;83.58;101152.84;4223694;28;20620;-71
2023/09/07 00:22:18;;;;;;;22.73;8.90;;;;;;;16.27;83.71;101156.66;4262966;28;22445;-71
2023/09/07 00:24:46;;;;;;;20.07;8.50;;;;;;;16.25;83.94;101159.53;4238183;28;20257;-69
2023/09/07 00:27:13;;;;;;;18.30;8.17;;;;;;;16.22;83.92;101159.88;4227063;28;22672;-71
2023/09/07 00:29:39;;;;;;;16.60;7.13;;;;;;;16.17;84.06;101159.50;4231841;28;21544;-70
2023/09/07 00:32:06;;;;;;;20.20;7.67;;;;;;;16.16;84.16;101153.19;4245914;28;22217;-70
2023/09/07 00:34:33;;;;;;;20.83;7.53;;;;;;;16.14;84.20;101155.22;4234855;28;20242;-68
2023/09/07 00:37:00;;;;;;;18.60;7.50;;;;;;;16.05;84.32;101160.84;4215749;28;20244;-69
2023/09/07 00:39:27;;;;;;;19.23;7.97;;;;;;;16.07;84.52;101153.34;4240662;28;20231;-69
2023/09/07 00:41:55;;;;;;;15.17;8.17;;;;;;;16.18;84.18;101152.19;4250673;28;20239;-69
2023/09/07 00:44:21;;;;;;;27.27;9.10;;;;;;;16.26;83.98;101149.47;4240004;28;20234;-70
2023/09/07 00:46:48;;;;;;;25.17;9.73;;;;;;;16.40;83.36;101156.13;4252669;28;21402;-68
2023/09/07 00:49:14;;;;;;;24.47;9.20;;;;;;;16.44;83.07;101160.25;4235165;28;20860;-69
2023/09/07 00:51:41;;;;;;;19.83;7.90;;;;;;;16.42;83.11;101152.22;4220361;28;22549;-69
2023/09/07 00:54:08;;;;;;;24.10;9.10;;;;;;;16.41;82.87;101166.03;4230835;28;20231;-71
2023/09/07 00:56:36;;;;;;;21.80;8.60;;;;;;;16.35;83.38;101158.53;4237667;28;21485;-69
2023/09/07 00:59:03;;;;;;;21.63;8.87;;;;;;;16.42;82.59;101154.09;4233013;28;21095;-70
2023/09/07 01:01:31;;;;;;;16.00;8.40;;;;;;;16.37;82.91;101154.59;4233682;28;21642;-71
2023/09/07 01:03:58;;;;;;;20.60;8.83;;;;;;;16.34;83.22;101152.22;4233501;28;20246;-70
2023/09/07 01:06:45;;;;;;;23.07;9.00;;;;;;;16.31;83.11;101152.53;4232165;28;20235;-70
2023/09/07 01:09:28;;;;;;;23.10;9.13;;;;;;;16.30;83.34;101153.56;4259389;28;22861;-68
2023/09/07 01:11:55;;;;;;;23.63;9.57;;;;;;;16.24;83.52;101149.63;4239099;28;20223;-72
2023/09/07 01:14:22;;;;;;;20.67;8.90;;;;;;;16.16;83.76;101153.19;4253893;28;20431;-69
2023/09/07 01:16:50;;;;;;;19.67;9.17;;;;;;;16.21;83.67;101146.34;4236080;28;20226;-69
2023/09/07 01:19:16;;;;;;;24.93;9.90;;;;;;;16.14;83.80;101157.97;4222899;28;20301;-70
2023/09/07 01:21:44;;;;;;;18.00;8.20;;;;;;;16.04;84.19;101151.81;4250297;28;20228;-68
2023/09/07 01:24:12;;;;;;;24.97;8.73;;;;;;;16.02;84.23;101161.16;4242072;28;22157;-69
2023/09/07 01:26:38;;;;;;;22.07;8.83;;;;;;;15.89;84.64;101159.75;4244757;28;20298;-70
2023/09/07 01:29:06;;;;;;;20.33;8.60;;;;;;;15.87;84.60;101160.94;4236050;28;21878;-68
2023/09/07 01:31:37;;;;;;;17.13;8.67;;;;;;;15.91;84.25;101165.91;4228136;28;20267;-68
2023/09/07 01:34:05;;;;;;;19.10;8.07;;;;;;;15.79;84.59;101165.31;4232204;28;20353;-68
2023/09/07 01:36:32;;;;;;;23.57;8.07;;;;;;;15.61;85.64;101162.69;4226727;28;20235;-68
2023/09/07 01:38:58;;;;;;;21.17;8.10;;;;;;;15.62;85.56;101164.41;4230601;28;20278;-68
2023/09/07 01:41:25;;;;;;;18.40;7.73;;;;;;;15.81;85.27;101165.16;4232819;28;21909;-68
2023/09/07 01:43:52;;;;;;;16.70;8.33;;;;;;;15.69;85.64;101162.72;4228821;28;20570;-69
2023/09/07 01:46:18;;;;;;;20.83;8.33;;;;;;;15.58;86.30;101165.72;4228601;28;20231;-70
2023/09/07 01:48:46;;;;;;;20.20;8.57;;;;;;;15.48;86.85;101165.00;4230006;28;20236;-69
2023/09/07 01:51:13;;;;;;;19.27;8.80;;;;;;;15.50;86.75;101163.81;4228254;28;20236;-69
2023/09/07 01:53:39;;;;;;;16.80;8.63;;;;;;;15.53;86.73;101171.66;4243248;28;20293;-68
2023/09/07 01:56:06;;;;;;;16.50;8.17;;;;;;;15.53;86.84;101165.38;4245442;28;20350;-68
2023/09/07 01:58:33;;;;;;;26.30;9.30;;;;;;;15.52;86.73;101163.66;4232400;28;22952;-69
2023/09/07 02:01:00;;;;;;;14.40;8.20;;;;;;;15.45;87.12;101157.13;4229669;28;20250;-70
2023/09/07 02:03:26;;;;;;;23.20;8.60;;;;;;;15.44;87.20;101159.00;4237753;28;20232;-68
2023/09/07 02:05:54;;;;;;;20.37;8.47;;;;;;;15.46;87.40;101161.56;4233408;28;20408;-69
2023/09/07 02:08:21;;;;;;;23.23;8.97;;;;;;;15.41;87.40;101163.94;4237204;28;20250;-70
2023/09/07 02:10:48;;;;;;;27.33;9.63;;;;;;;15.38;87.57;101154.19;4236573;28;22206;-68
2023/09/07 02:13:14;;;;;;;17.70;8.53;;;;;;;15.32;88.23;101160.28;4241314;28;20235;-68
2023/09/07 02:15:41;;;;;;;18.30;9.40;;;;;;;15.32;88.17;101158.44;4227942;28;23191;-70
2023/09/07 02:18:08;;;;;;;20.20;9.53;;;;;;;15.27;88.30;101154.47;4222629;28;20235;-69
2023/09/07 02:20:34;;;;;;;16.70;10.07;;;;;;;15.28;88.36;101158.91;4232173;28;20309;-68
2023/09/07 02:23:02;;;;;;;19.63;9.70;;;;;;;15.31;88.46;101145.81;4207953;28;24825;-68
2023/09/07 02:25:30;;;;;;;17.57;9.40;;;;;;;15.34;88.36;101158.25;4231938;28;20246;-70
2023/09/07 02:27:57;;;;;;;16.70;9.40;;;;;;;15.35;88.50;101160.81;4227557;28;20317;-70
2023/09/07 02:30:23;;;;;;;19.63;8.97;;;;;;;15.34;88.37;101161.00;4231431;28;20231;-69
2023/09/07 02:32:50;;;;;;;23.13;9.97;;;;;;;15.30;88.57;101154.13;4233311;28;20234;-68
2023/09/07 02:35:17;;;;;;;18.97;10.40;;;;;;;15.27;88.92;101170.84;4228705;28;20239;-71
2023/09/07 02:37:44;;;;;;;17.47;10.17;;;;;;;15.27;88.64;101168.09;4231332;28;20352;-69
2023/09/07 02:40:11;;;;;;;20.63;10.10;;;;;;;15.29;88.67;101161.47;4240567;28;21300;-71
2023/09/07 02:42:38;;;;;;;17.70;9.83;;;;;;;15.23;88.75;101169.44;4217304;28;20285;-69
2023/09/07 02:45:05;;;;;;;20.07;10.37;;;;;;;15.21;89.01;101169.59;4233370;28;20227;-70
2023/09/07 02:47:31;;;;;;;30.57;13.03;;;;;;;15.25;88.98;101168.28;4227431;28;20311;-71
2023/09/07 02:49:58;;;;;;;25.43;12.97;;;;;;;15.20;89.07;101167.88;4214179;28;20228;-69
2023/09/07 02:52:25;;;;;;;22.97;12.90;;;;;;;15.19;89.45;101171.63;4227631;28;20246;-69
2023/09/07 02:54:51;;;;;;;26.03;12.97;;;;;;;15.13;89.17;101175.88;4236816;28;20590;-69
2023/09/07 02:57:18;;;;;;;25.20;12.20;;;;;;;15.05;89.70;101173.91;4208525;28;20713;-69
2023/09/07 02:59:44;;;;;;;23.77;11.67;;;;;;;15.03;89.90;101169.63;4225724;28;20246;-70
2023/09/07 03:02:12;;;;;;;28.20;13.33;;;;;;;15.03;89.95;101170.47;4211945;28;20235;-69
2023/09/07 03:04:38;;;;;;;23.53;12.13;;;;;;;14.99;89.75;101168.25;4244511;28;20297;-70
2023/09/07 03:07:05;;;;;;;20.43;12.00;;;;;;;14.97;89.77;101167.56;4231609;28;20421;-69
2023/09/07 03:09:32;;;;;;;27.20;13.47;;;;;;;14.93;90.15;101177.91;4235999;28;21953;-71
2023/09/07 03:11:59;;;;;;;21.70;12.43;;;;;;;14.89;90.19;101179.22;4237307;28;20224;-69
2023/09/07 03:14:25;;;;;;;23.00;11.50;;;;;;;14.91;89.92;101174.47;4239289;28;20227;-70
2023/09/07 03:16:54;;;;;;;22.33;11.47;;;;;;;14.88;90.15;101166.59;4227028;28;20777;-71
2023/09/07 03:19:21;;;;;;;24.10;12.17;;;;;;;14.86;90.31;101177.69;4236987;28;23917;-70
2023/09/07 03:21:48;;;;;;;26.23;11.87;;;;;;;14.79;90.58;101173.03;4240978;28;20239;-69
2023/09/07 03:24:15;;;;;;;22.57;12.17;;;;;;;14.72;90.80;101173.66;4228373;28;20427;-69
2023/09/07 03:26:43;;;;;;;24.43;12.67;;;;;;;14.62;92.02;101182.88;4229524;28;20223;-71
2023/09/07 03:29:10;;;;;;;26.67;12.47;;;;;;;14.69;91.24;101173.97;4252239;28;21145;-69
2023/09/07 03:31:36;;;;;;;21.80;10.83;;;;;;;14.69;91.28;101181.28;4234033;28;20278;-70
2023/09/07 03:34:03;;;;;;;21.63;11.50;;;;;;;14.64;91.00;101172.69;4227934;28;21152;-70
2023/09/07 03:36:30;;;;;;;22.83;11.80;;;;;;;14.61;92.20;101182.03;4234747;28;20646;-70
2023/09/07 03:38:57;;;;;;;29.37;11.47;;;;;;;14.72;91.36;101184.56;4233579;28;21290;-68
2023/09/07 03:41:30;;;;;;;17.97;10.23;;;;;;;14.68;91.19;101176.84;4230873;28;20231;-69
2023/09/07 03:43:57;;;;;;;24.40;12.80;;;;;;;14.61;92.08;101182.03;4232086;28;20235;-69
2023/09/07 03:46:23;;;;;;;22.87;11.10;;;;;;;14.67;91.45;101186.03;4234103;28;22421;-70
2023/09/07 03:48:50;;;;;;;21.53;11.50;;;;;;;14.65;91.32;101175.25;4237280;28;20240;-69
2023/09/07 03:51:17;;;;;;;22.13;11.93;;;;;;;14.57;91.61;101176.03;4235208;28;20306;-70
2023/09/07 03:53:44;;;;;;;20.20;11.77;;;;;;;14.69;91.07;101182.13;4246350;28;20301;-68
2023/09/07 03:56:10;;;;;;;24.00;11.23;;;;;;;14.65;91.13;101191.59;4242062;28;20295;-70
2023/09/07 03:58:37;;;;;;;35.53;12.80;;;;;;;14.62;91.23;101182.88;4235546;28;20305;-69
2023/09/07 04:01:04;;;;;;;26.53;13.17;;;;;;;14.55;92.14;101185.38;4239341;28;21140;-69
2023/09/07 04:03:31;;;;;;;23.70;12.93;;;;;;;14.56;92.41;101190.66;4232853;28;20227;-69
2023/09/07 04:05:59;;;;;;;25.13;12.80;;;;;;;14.62;92.30;101196.50;4232726;28;20350;-70
2023/09/07 04:08:26;;;;;;;26.70;13.70;;;;;;;14.66;91.80;101192.50;4257625;28;20432;-70
2023/09/07 04:10:53;;;;;;;25.13;13.20;;;;;;;14.60;91.56;101193.94;4255362;28;21699;-70
2023/09/07 04:13:22;;;;;;;25.23;12.80;;;;;;;14.56;91.93;101190.66;4271270;28;20230;-69
2023/09/07 04:15:49;;;;;;;25.77;14.23;;;;;;;14.45;92.79;101190.91;4255963;28;20223;-68
2023/09/07 04:18:16;;;;;;;22.47;13.40;;;;;;;14.44;93.00;101183.75;4249348;28;20307;-69
2023/09/07 04:20:44;;;;;;;28.37;13.87;;;;;;;14.53;93.17;101190.13;4246363;28;20290;-69
2023/09/07 04:23:12;;;;;;;24.17;13.67;;;;;;;14.54;92.77;101192.69;4259305;28;20237;-70
2023/09/07 04:25:39;;;;;;;24.23;13.97;;;;;;;14.60;92.62;101190.38;4260116;28;20230;-70
2023/09/07 04:28:06;;;;;;;23.67;12.67;;;;;;;14.62;92.62;101191.91;4234368;28;20231;-69
2023/09/07 04:30:37;;;;;;;22.70;11.70;;;;;;;14.67;92.31;101189.59;4240814;28;23041;-71
2023/09/07 04:33:04;;;;;;;26.23;12.30;;;;;;;14.72;91.96;101190.00;4260784;28;20302;-71
2023/09/07 04:35:33;;;;;;;21.47;11.20;;;;;;;14.76;91.96;101190.56;4236321;28;20241;-71
2023/09/07 04:37:59;;;;;;;16.07;10.17;;;;;;;14.92;91.64;101194.44;4224804;28;21925;-70
2023/09/07 04:40:26;;;;;;;22.87;11.40;;;;;;;14.96;91.48;101193.09;4251298;28;22190;-73
2023/09/07 04:42:53;;;;;;;21.30;11.10;;;;;;;15.03;91.25;101186.00;4230475;28;20232;-72
2023/09/07 04:45:21;;;;;;;24.90;12.97;;;;;;;15.05;91.31;101193.00;4228244;28;20228;-70
2023/09/07 04:47:49;;;;;;;20.37;11.47;;;;;;;15.16;90.91;101194.63;4232824;28;20616;-68
2023/09/07 04:50:16;;;;;;;23.90;11.80;;;;;;;15.22;90.80;101206.78;4253806;28;20223;-69
2023/09/07 04:52:43;;;;;;;19.87;11.57;;;;;;;15.22;90.90;101201.31;4240388;28;20228;-69
2023/09/07 04:55:10;;;;;;;25.70;12.63;;;;;;;15.23;91.11;101204.88;4239942;28;23164;-66
2023/09/07 04:57:37;;;;;;;23.27;13.17;;;;;;;15.21;91.26;101211.38;4244502;28;21251;-70
2023/09/07 05:00:10;;;;;;;36.20;18.03;;;;;;;15.25;91.09;101206.47;4235671;28;20302;-70
2023/09/07 05:02:41;;;;;;;28.47;12.90;;;;;;;15.27;91.35;101218.03;4224226;28;21741;-71
2023/09/07 05:05:08;;;;;;;26.77;12.73;;;;;;;15.27;91.48;101218.03;4233938;28;20268;-72
2023/09/07 05:07:35;;;;;;;24.10;13.03;;;;;;;15.31;91.43;101219.47;4238644;28;20595;-70
2023/09/07 05:10:02;;;;;;;25.23;13.63;;;;;;;15.44;91.46;101216.31;4250379;28;20273;-69
2023/09/07 05:12:29;;;;;;;27.10;13.77;;;;;;;15.51;90.75;101224.69;4228255;28;21156;-70
2023/09/07 05:14:56;;;;;;;25.17;13.57;;;;;;;15.52;90.54;101219.06;4239400;28;20289;-67
2023/09/07 05:17:23;;;;;;;23.93;13.00;;;;;;;15.63;90.71;101215.25;4248737;28;20238;-70
2023/09/07 05:19:50;;;;;;;24.93;13.00;;;;;;;15.86;89.77;101224.75;4237371;28;20254;-69
2023/09/07 05:22:17;;;;;;;24.67;12.60;;;;;;;15.92;89.10;101229.56;4247731;28;23143;-71
2023/09/07 05:24:46;;;;;;;26.87;13.57;;;;;;;15.94;88.85;101222.91;4274625;28;20620;-70
2023/09/07 05:27:13;;;;;;;22.87;13.07;;;;;;;16.03;88.72;101226.56;4255167;28;20310;-68
2023/09/07 05:29:40;;;;;;;19.90;13.00;;;;;;;16.09;88.59;101223.16;4249975;28;20226;-70
2023/09/07 05:32:09;;;;;;;31.33;13.57;;;;;;;16.21;88.54;101229.19;4249621;28;21801;-69
2023/09/07 05:34:35;;;;;;;26.73;13.90;;;;;;;16.29;88.13;101229.22;4281327;28;22281;-70
2023/09/07 05:37:02;;;;;;;28.30;13.77;;;;;;;16.44;87.53;101231.31;4265907;28;20234;-67
2023/09/07 05:39:29;;;;;;;27.70;13.57;;;;;;;16.52;87.33;101230.47;4243743;28;21622;-69
2023/09/07 05:41:56;;;;;;;25.50;13.43;;;;;;;16.69;86.78;101236.84;4281767;28;20236;-68
2023/09/07 05:44:22;;;;;;;29.73;14.60;;;;;;;16.86;85.82;101235.81;4243437;28;21103;-69
2023/09/07 05:46:49;;;;;;;30.13;14.30;;;;;;;16.88;85.12;101231.03;4294259;28;20237;-70
2023/09/07 05:49:16;;;;;;;31.60;15.30;;;;;;;16.97;84.83;101240.13;4260374;28;20393;-68
2023/09/07 05:51:42;;;;;;;26.27;14.17;;;;;;;17.15;83.68;101239.97;4231640;28;20361;-68
2023/09/07 05:54:09;;;;;;;32.73;14.67;;;;;;;17.20;83.74;101242.19;4249334;28;20850;-65
2023/09/07 05:56:36;;;;;;;27.73;14.43;;;;;;;17.16;83.58;101254.50;4236118;28;20254;-69
2023/09/07 05:59:02;;;;;;;28.70;14.97;;;;;;;17.29;82.88;101248.53;4240023;28;20243;-69
2023/09/07 06:01:29;;;;;;;29.07;14.60;;;;;;;17.46;82.40;101250.22;4231202;28;20317;-67
2023/09/07 06:03:55;;;;;;;30.80;14.40;;;;;;;17.52;82.38;101249.50;4235206;28;20293;-67
2023/09/07 06:06:22;;;;;;;31.83;14.70;;;;;;;17.69;81.46;101252.22;4232194;28;20236;-68
2023/09/07 06:08:49;;;;;;;27.00;14.40;;;;;;;17.80;81.25;101257.34;4238720;28;20261;-70
2023/09/07 06:11:16;;;;;;;35.63;14.17;;;;;;;17.85;80.63;101256.81;4226992;28;20910;-68
2023/09/07 06:13:42;;;;;;;29.47;14.40;;;;;;;18.07;79.92;101244.28;4273198;28;20324;-66
2023/09/07 06:16:09;;;;;;;28.07;14.10;;;;;;;18.10;79.67;101248.53;4243693;28;21566;-67
2023/09/07 06:18:36;;;;;;;32.40;14.50;;;;;;;18.19;79.51;101251.09;4266603;28;21588;-68
2023/09/07 06:21:04;;;;;;;29.63;14.33;;;;;;;18.24;79.83;101250.53;4243724;28;20250;-66
2023/09/07 06:23:31;;;;;;;28.67;13.37;;;;;;;18.56;78.86;101256.88;4215974;28;20876;-69
2023/09/07 06:25:59;;;;;;;36.87;14.73;;;;;;;18.62;78.25;101261.63;4246174;28;20231;-69
2023/09/07 06:28:25;;;;;;;28.90;13.90;;;;;;;18.65;77.44;101261.28;4248012;28;20245;-68
2023/09/07 06:30:52;;;;;;;28.77;13.80;;;;;;;18.74;77.50;101255.75;4239360;28;20301;-72
2023/09/07 06:33:19;;;;;;;36.83;15.00;;;;;;;18.81;76.51;101254.84;4268139;28;20265;-72
2023/09/07 06:35:46;;;;;;;30.23;14.17;;;;;;;18.92;75.80;101264.56;4248807;28;20510;-71
2023/09/07 06:38:13;;;;;;;46.37;14.23;;;;;;;19.11;75.17;101257.72;4234185;28;22771;-71
2023/09/07 06:40:41;;;;;;;29.10;12.93;;;;;;;19.42;74.10;101253.19;4227625;28;20638;-70
2023/09/07 06:43:08;;;;;;;26.60;13.27;;;;;;;19.61;72.85;101260.88;4222901;28;23435;-71
2023/09/07 06:45:35;;;;;;;30.43;12.70;;;;;;;19.62;71.47;101264.50;4228358;28;20234;-72
2023/09/07 06:48:03;;;;;;;32.97;13.93;;;;;;;19.55;72.25;101269.03;4246932;28;20231;-70
2023/09/07 06:50:30;;;;;;;36.73;14.47;;;;;;;19.53;72.44;101262.88;4234897;28;21112;-73
2023/09/07 06:52:57;;;;;;;33.77;14.27;;;;;;;19.64;71.32;101266.03;4232238;28;20303;-68
2023/09/07 06:55:24;;;;;;;26.60;13.80;;;;;;;19.85;70.70;101266.38;4247872;28;22103;-70
2023/09/07 06:57:51;;;;;;;23.30;12.63;;;;;;;20.14;69.67;101264.66;4266972;28;20240;-67
2023/09/07 07:00:22;;;;;;;25.13;12.80;;;;;;;21.05;67.22;101269.75;4316715;28;21738;-69
2023/09/07 07:02:49;;;;;;;24.13;12.03;;;;;;;23.24;60.29;101264.84;4287105;28;20239;-69
2023/09/07 07:05:15;;;;;;;32.00;10.53;;;;;;;24.75;53.55;101263.25;4243222;28;20321;-72
2023/09/07 07:07:42;;;;;;;29.20;11.03;;;;;;;26.29;50.16;101273.00;4321211;28;20302;-71
2023/09/07 07:10:09;;;;;;;24.93;10.53;;;;;;;27.50;46.00;101269.38;4318450;28;20279;-71
2023/09/07 07:12:39;;;;;;;23.73;9.80;;;;;;;28.17;44.84;101263.69;4440539;28;20620;-70
2023/09/07 07:15:08;;;;;;;30.77;10.03;;;;;;;29.07;42.30;101272.47;4405041;28;20234;-69
2023/09/07 07:17:38;;;;;;;27.73;10.15;;;;;;;30.82;38.54;101277.78;4323044;28;20352;-69
2023/09/07 07:20:05;;;;;;;24.50;9.75;;;;;;;32.45;35.89;101273.97;4301144;28;22307;-69
2023/09/07 07:22:35;;;;;;;25.58;10.05;;;;;;;33.29;34.26;101271.06;4340100;28;21857;-67
2023/09/07 07:25:05;;;;;;;20.00;9.82;;;;;;;30.47;38.80;101278.22;4377984;28;21864;-67
2023/09/07 07:27:32;;;;;;;25.98;11.20;;;;;;;30.62;37.82;101283.16;4383047;28;20404;-69
2023/09/07 07:29:59;;;;;;;28.35;10.70;;;;;;;32.14;35.86;101283.06;4333935;28;21897;-70
2023/09/07 07:32:26;;;;;;;24.35;10.13;;;;;;;31.62;36.53;101279.09;4324098;28;20231;-69
2023/09/07 07:34:53;;;;;;;21.42;9.40;;;;;;;33.31;33.40;101282.88;4329965;28;22938;-67
2023/09/07 07:37:25;;;;;;;28.38;9.80;;;;;;;32.02;35.58;101276.84;4272243;28;20306;-71
2023/09/07 07:39:52;;;;;;;26.38;9.00;;;;;;;33.22;33.77;101278.91;4253008;28;20242;-45
2023/09/07 07:42:20;;;;;;;19.88;9.27;;;;;;;33.34;33.49;101279.53;4270443;28;22238;-74
2023/09/07 07:44:48;;;;;;;21.15;9.20;;;;;;;33.37;33.44;101287.38;4255724;28;20607;-73
2023/09/07 07:47:15;;;;;;;25.08;9.07;;;;;;;34.56;31.84;101301.16;4262844;28;22047;-74
2023/09/07 07:49:42;;;;;;;15.27;8.55;;;;;;;34.86;31.82;101294.53;4265050;28;21467;-76
2023/09/07 07:52:08;;;;;;;17.23;8.95;;;;;;;35.84;29.76;101290.09;4308344;28;20247;-74
2023/09/07 07:54:36;;;;;;;18.50;9.48;;;;;;;33.34;33.22;101294.38;4238463;28;20296;-75
2023/09/07 07:57:03;;;;;;;15.57;8.90;;;;;;;33.94;32.59;101295.75;4303483;28;20357;-75
2023/09/07 07:59:30;;;;;;;22.10;8.75;;;;;;;35.59;30.19;101297.66;4271983;28;20263;-70
2023/09/07 08:01:56;;;;;;;14.90;9.68;;;;;;;33.84;32.08;101295.75;4237222;28;20250;-73
2023/09/07 08:04:23;;;;;;;11.20;7.47;;;;;;;35.04;30.76;101295.84;4281495;28;26492;-74
2023/09/07 08:06:54;;;;;;;17.00;8.57;;;;;;;34.54;31.38;101295.81;4333947;28;21533;-71
2023/09/07 08:09:22;;;;;;;17.50;8.52;;;;;;;33.74;31.95;101297.44;4317780;28;20227;-72
2023/09/07 08:11:50;;;;;;;15.75;8.27;;;;;;;34.35;31.88;101298.41;4344090;28;21176;-71
2023/09/07 08:14:17;;;;;;;19.92;8.63;;;;;;;34.48;31.58;101301.78;4318844;28;20343;-74
2023/09/07 08:16:43;;;;;;;20.50;8.57;;;;;;;32.04;35.84;101299.81;4230391;28;21105;-67
2023/09/07 08:19:10;;;;;;;29.98;8.80;;;;;;;32.12;35.69;101292.84;4228270;28;20254;-68
2023/09/07 08:21:37;;;;;;;25.05;9.23;;;;;;;30.75;38.32;101301.47;4283990;28;20234;-70
2023/09/07 08:24:05;;;;;;;16.80;8.55;;;;;;;30.74;38.15;101299.78;4268629;28;20246;-68
2023/09/07 08:26:32;;;;;;;16.73;7.95;;;;;;;30.93;37.77;101294.69;4246201;28;20310;-68
2023/09/07 08:28:59;;;;;;;31.48;9.20;;;;;;;29.39;40.49;101295.06;4233492;28;20226;-72
2023/09/07 08:31:26;;;;;;;18.65;8.65;;;;;;;29.30;42.11;101301.28;4263894;28;20347;-70
2023/09/07 08:33:56;;;;;;;17.13;8.18;;;;;;;29.38;41.43;101298.13;4295887;28;20362;-71
2023/09/07 08:36:23;;;;;;;21.60;8.80;;;;;;;29.14;42.23;101291.78;4274450;28;20227;-73
2023/09/07 08:38:53;;;;;;;19.33;8.13;;;;;;;29.40;42.01;101298.69;4335260;28;20323;-72
2023/09/07 08:41:22;;;;;;;23.98;7.72;;;;;;;29.30;41.94;101304.09;4263569;28;20519;-68
2023/09/07 08:43:53;;;;;;;25.00;8.23;;;;;;;28.77;42.61;101305.06;4286449;28;20332;-71
2023/09/07 08:46:25;;;;;;;14.75;7.22;;;;;;;29.01;42.48;101292.94;4309526;28;20329;-70
2023/09/07 08:48:53;;;;;;;16.23;6.43;;;;;;;28.77;42.67;101305.06;4249611;28;21347;-69
2023/09/07 08:51:19;;;;;;;20.83;7.53;;;;;;;28.75;42.72;101303.63;4266042;28;20400;-68
2023/09/07 08:53:47;;;;;;;16.63;6.68;;;;;;;28.74;42.69;101301.94;4284600;28;20597;-70
2023/09/07 08:56:16;;;;;;;19.02;7.25;;;;;;;27.99;45.33;101294.19;4237611;28;23074;-70
2023/09/07 08:58:44;;;;;;;13.10;6.10;;;;;;;28.42;43.54;101291.22;4265136;28;21759;-73
2023/09/07 09:01:12;;;;;;;18.67;6.20;;;;;;;28.33;44.08;101301.91;4231214;28;26662;-71
2023/09/07 09:03:39;;;;;;;13.67;6.40;;;;;;;28.54;43.30;101302.31;4295125;28;20747;-71
2023/09/07 09:06:07;;;;;;;17.63;6.87;;;;;;;28.52;43.87;101297.00;4235939;28;20356;-70
2023/09/07 09:09:06;;;;;;;18.20;7.00;;;;;;;27.98;45.27;101297.22;4269554;28;20231;-67
2023/09/07 09:11:33;;;;;;;14.57;6.07;;;;;;;27.80;45.55;101289.81;4231759;28;20345;-69
2023/09/07 09:14:00;;;;;;;13.77;5.93;;;;;;;28.25;45.38;101294.75;4262180;28;21483;-73
2023/09/07 09:16:27;;;;;;;18.53;5.37;;;;;;;28.32;44.55;101297.41;4230407;28;20227;-71
2023/09/07 09:18:55;;;;;;;14.57;5.03;;;;;;;28.28;43.84;101299.84;4282643;28;22093;-69
2023/09/07 09:21:24;;;;;;;6.93;4.43;;;;;;;27.91;45.12;101300.13;4246335;28;21246;-73
2023/09/07 09:23:53;;;;;;;16.03;5.30;;;;;;;27.25;46.87;101300.16;4264495;28;20790;-68
2023/09/07 09:26:19;;;;;;;15.27;5.63;;;;;;;27.58;46.46;101290.41;4242503;28;21815;-71
2023/09/07 22:46:15;;;;;;;15.00;5.10;;;;;;;19.00;70.81;101178.59;4294182;27;20703;-67
2023/09/07 22:48:43;;;;;;;9.30;5.00;;;;;;;19.02;70.75;101172.91;4252715;28;20259;-68
2023/09/07 22:51:10;;;;;;;12.57;5.37;;;;;;;18.96;71.23;101161.66;4341998;28;20285;-65
2023/09/07 22:53:37;;;;;;;14.63;5.27;;;;;;;18.95;71.03;101170.94;4237621;28;20243;-65
2023/09/07 22:56:04;;;;;;;12.63;5.77;;;;;;;18.92;71.29;101173.19;4210205;28;20228;-66
2023/09/07 22:58:30;;;;;;;10.23;5.43;;;;;;;18.84;71.61;101174.94;4218730;28;20795;-67
2023/09/07 23:00:58;;;;;;;10.47;4.97;;;;;;;18.89;71.47;101179.88;4225830;28;20239;-69
2023/09/07 23:03:25;;;;;;;10.10;5.23;;;;;;;18.82;71.65;101171.50;4222250;28;22251;-67
2023/09/07 23:05:52;;;;;;;12.80;6.03;;;;;;;18.78;72.30;101178.41;4220216;28;20339;-68
2023/09/07 23:08:18;;;;;;;11.17;5.50;;;;;;;18.83;71.69;101177.88;4214105;28;21323;-68
2023/09/07 23:10:46;;;;;;;11.30;5.00;;;;;;;18.79;72.14;101177.38;4229114;28;20278;-66
2023/09/07 23:13:13;;;;;;;13.50;5.37;;;;;;;18.77;72.28;101178.59;4226253;28;20236;-66
2023/09/07 23:15:43;;;;;;;10.77;5.77;;;;;;;18.76;72.14;101174.16;4218361;28;20488;-67
2023/09/07 23:18:10;;;;;;;10.53;4.63;;;;;;;18.76;72.64;101171.41;4215876;28;20228;-66
2023/09/07 23:20:36;;;;;;;9.50;5.27;;;;;;;18.72;72.61;101178.28;4220791;28;20239;-67
2023/09/07 23:23:03;;;;;;;12.50;5.50;;;;;;;18.72;72.81;101172.78;4233650;28;20855;-66
2023/09/07 23:25:30;;;;;;;9.73;4.90;;;;;;;18.72;72.23;101176.41;4233868;28;20405;-66
2023/09/07 23:27:57;;;;;;;12.10;5.37;;;;;;;18.70;72.68;101181.22;4225486;28;20231;-65
2023/09/07 23:30:24;;;;;;;10.27;4.87;;;;;;;18.65;72.80;101180.91;4229246;28;20404;-70
2023/09/07 23:32:51;;;;;;;11.30;5.17;;;;;;;18.67;72.37;101178.81;4247635;28;20876;-66
2023/09/07 23:35:18;;;;;;;11.87;5.03;;;;;;;18.64;72.99;101179.22;4233825;28;20231;-66
2023/09/07 23:37:45;;;;;;;10.90;5.07;;;;;;;18.70;72.46;101183.97;4216439;28;20231;-66
2023/09/07 23:40:14;;;;;;;12.40;5.63;;;;;;;18.63;72.98;101182.97;4228267;28;20228;-67
2023/09/07 23:42:42;;;;;;;15.07;5.67;;;;;;;18.60;73.10;101180.59;4238828;28;21359;-66
2023/09/07 23:45:10;;;;;;;11.67;5.30;;;;;;;18.57;73.18;101176.34;4229652;28;20298;-67
2023/09/07 23:47:37;;;;;;;12.23;5.47;;;;;;;18.52;73.54;101181.53;4242338;28;20247;-66
2023/09/07 23:50:05;;;;;;;13.27;5.67;;;;;;;18.46;73.96;101185.84;4228562;28;20235;-67
2023/09/07 23:52:32;;;;;;;12.87;5.47;;;;;;;18.47;73.75;101172.97;4230138;28;20242;-68
2023/09/07 23:55:00;;;;;;;11.60;6.17;;;;;;;18.40;74.25;101172.84;4235568;28;20231;-67
2023/09/07 23:57:27;;;;;;;15.33;5.93;;;;;;;18.37;75.00;101164.97;4231318;28;21259;-66
2023/09/07 23:59:57;;;;;;;9.50;5.47;;;;;;;18.35;74.51;101170.66;4215545;28;20528;-65
